Latest Weather Observations for Geelong Racecourse

IDV60901

Issued at 9:51 am EDT Friday 24 February 2017 (issued every 10 minutes, with the page automatically refreshed every 10 minutes)

About weather observations | Map of Melbourne area stations | Latest observations for Melbourne area | Other Formats
Station Details ID: 087184 Name: GEELONG RACECOURSE Lat: -38.17 Lon: 144.38 Height: 12.9 m
Data from the previous 72 hours. | See also: Recent months at Geelong Racecourse
Date/Time
EDT
Temp
°C
App
Temp
°C
Dew
Point
°C
Rel
Hum
%
Delta-T
°C
Wind Press
QNH
hPa
Press
MSL
hPa
Rain since
9am
mm
Dir  Spd
km/h
Gust
km/h
Spd
kts
Gust
kts
24/09:30am 16.5 13.4 8.7 60 4.0 SW 15 19 8 10 1025.2 1025.2 0.0
24/09:00am 16.4 14.9 9.1 62 3.7 WSW 7 13 4 7 1024.9 1024.9 0.2
24/08:30am 15.2 13.1 9.8 70 2.8 SW 11 15 6 8 1024.6 1024.6 0.2
24/08:00am 14.9 12.9 10.1 73 2.5 SW 11 17 6 9 1024.3 1024.3 0.2
24/07:30am 14.5 12.0 10.9 79 1.9 SW 15 19 8 10 1024.0 1024.0 0.2
24/07:00am 14.6 12.7 11.9 84 1.5 SW 13 17 7 9 1023.7 1023.7 0.2
24/06:30am 14.6 13.0 11.7 83 1.6 SW 11 17 6 9 1023.5 1023.5 0.2
24/06:00am 14.6 14.3 13.3 92 0.7 WSW 7 15 4 8 1023.2 1023.2 0.2
24/05:30am 14.5 14.4 13.4 93 0.6 W 6 7 3 4 1023.0 1023.0 0.2
24/05:00am 14.6 14.6 13.5 93 0.6 SW 6 9 3 5 1022.7 1022.7 0.2
24/04:30am 14.7 14.5 13.6 93 0.6 SW 7 9 4 5 1022.7 1022.7 0.2
24/04:00am 14.7 14.7 13.7 94 0.6 SW 6 7 3 4 1022.7 1022.7 0.2
24/03:30am 14.7 14.7 13.7 94 0.6 SW 6 7 3 4 1022.7 1022.7 0.2
24/03:00am 14.9 14.8 13.9 94 0.6 SW 7 13 4 7 1023.1 1023.1 0.2
24/02:30am 15.9 14.5 14.6 92 0.7 SW 15 22 8 12 1023.2 1023.2 0.0
24/02:00am 16.1 15.6 14.8 92 0.7 SW 11 15 6 8 1023.1 1023.1 0.0
24/01:30am 16.1 15.2 14.8 92 0.7 SSW 13 19 7 10 1023.3 1023.3 0.0
24/01:00am 16.3 15.8 15.0 92 0.7 SSW 11 17 6 9 1023.2 1023.2 0.0
24/12:30am 16.2 15.3 14.9 92 0.7 SSW 13 17 7 9 1023.3 1023.3 0.0
24/12:00am 16.1 16.0 15.0 93 0.6 SSW 9 13 5 7 1023.2 1023.2 0.0
 
Date/Time
EDT
Temp
°C
App
Temp
°C
Dew
Point
°C
Rel
Hum
%
Delta-T
°C
Wind Press
QNH
hPa
Press
MSL
hPa
Rain since
9am
mm
Dir  Spd
km/h
Gust
km/h
Spd
kts
Gust
kts
23/11:30pm 16.6 15.9 15.3 92 0.8 SW 13 19 7 10 1023.1 1023.1 0.0
23/11:00pm 16.7 16.8 15.4 92 0.8 SSW 9 13 5 7 1023.1 1023.1 0.0
23/10:30pm 16.7 17.2 15.6 93 0.6 SW 7 11 4 6 1022.9 1022.9 0.0
23/10:00pm 16.5 16.9 15.4 93 0.6 SW 7 11 4 6 1022.6 1022.6 0.0
23/09:30pm 16.3 15.9 15.2 93 0.6 S 11 17 6 9 1022.1 1022.1 0.0
23/09:00pm 16.5 15.4 15.4 93 0.6 SSW 15 22 8 12 1021.5 1021.5 0.0
23/08:30pm 16.9 15.5 15.6 92 0.8 SSW 17 24 9 13 1020.8 1020.8 0.0
23/08:00pm 17.6 15.5 16.3 92 0.8 SSW 22 32 12 17 1020.4 1020.4 0.0
23/07:30pm 18.4 16.5 16.6 89 1.1 S 22 35 12 19 1020.0 1020.0 0.0
23/07:00pm 19.3 16.5 15.4 78 2.3 S 24 33 13 18 1019.8 1019.8 0.0
23/06:30pm 19.6 16.6 14.8 74 2.8 S 24 32 13 17 1019.6 1019.6 0.0
23/06:00pm 20.2 17.6 13.9 67 3.6 S 20 26 11 14 1019.4 1019.4 0.0
23/05:30pm 21.2 18.7 13.6 62 4.4 S 19 26 10 14 1018.8 1018.8 0.0
23/05:00pm 21.2 18.8 13.9 63 4.2 S 19 24 10 13 1018.3 1018.3 0.0
23/04:30pm 22.9 21.6 14.7 60 4.9 SSE 15 22 8 12 1018.1 1018.1 0.0
23/04:00pm 23.1 21.9 14.1 57 5.3 S 13 20 7 11 1018.0 1018.0 0.0
23/03:30pm 22.3 21.2 14.4 61 4.6 SSE 13 19 7 10 1018.1 1018.1 0.0
23/03:00pm 24.3 22.0 11.9 45 7.0 W 15 24 8 13 1018.2 1018.2 0.0
23/02:30pm 23.3 20.6 11.7 48 6.5 WSW 17 24 9 13 1018.2 1018.2 0.0
23/02:00pm 24.4 22.2 12.0 46 7.0 NW 15 22 8 12 1018.1 1018.1 0.0
23/01:30pm 22.6 20.2 12.8 54 5.6 W 17 26 9 14 1018.3 1018.3 0.0
23/01:00pm 22.5 20.4 12.4 52 5.7 WNW 15 24 8 13 1018.1 1018.1 0.0
23/12:30pm 22.3 19.9 12.5 53 5.6 W 17 28 9 15 1018.2 1018.2 0.0
23/12:00pm 22.1 19.1 12.1 53 5.6 WNW 19 32 10 17 1018.3 1018.3 0.0
23/11:30am 21.2 19.2 12.6 58 4.9 WNW 15 24 8 13 1018.3 1018.3 0.0
23/11:00am 20.2 17.3 12.4 61 4.4 W 19 28 10 15 1018.1 1018.1 0.0
23/10:30am 20.8 17.9 13.0 61 4.4 W 20 30 11 16 1017.7 1017.7 0.0
23/10:00am 20.2 17.5 12.9 63 4.1 W 19 30 10 16 1017.2 1017.2 0.0
23/09:30am 19.4 16.8 13.1 67 3.6 WNW 19 30 10 16 1016.9 1016.9 0.0
23/09:00am 18.6 17.4 12.8 69 3.2 NW 11 19 6 10 1016.7 1016.7 0.0
23/08:30am 17.7 16.8 12.6 72 2.8 NW 9 11 5 6 1016.4 1016.4 0.0
23/08:00am 17.1 16.6 12.0 72 2.8 NW 6 13 3 7 1016.1 1016.1 0.0
23/07:30am 16.4 15.4 11.1 71 2.8 WNW 7 13 4 7 1015.6 1015.6 0.0
23/07:00am 15.8 15.3 10.6 71 2.8 NW 4 7 2 4 1014.9 1014.9 0.0
23/06:30am 16.4 15.3 10.7 69 3.0 NW 7 13 4 7 1014.3 1014.3 0.0
23/06:00am 16.2 15.1 10.5 69 3.0 NNW 7 9 4 5 1013.8 1013.8 0.0
23/05:30am 16.8 15.8 10.9 68 3.2 NNW 7 13 4 7 1013.3 1013.3 0.0
23/05:00am 16.8 16.4 11.1 69 3.1 NNW 4 9 2 5 1013.2 1013.2 0.0
23/04:30am 17.2 16.4 11.0 67 3.3 NNW 6 9 3 5 1012.9 1012.9 0.0
23/04:00am 17.3 16.4 11.3 68 3.3 N 7 9 4 5 1012.6 1012.6 0.0
23/03:30am 18.3 17.2 11.8 66 3.6 NW 9 17 5 9 1012.4 1012.4 0.0
23/03:00am 17.7 17.6 12.2 70 3.0 NNW 4 11 2 6 1012.4 1012.4 0.0
23/02:30am 17.9 17.6 12.6 71 3.0 NNW 6 7 3 4 1012.3 1012.3 0.0
23/02:00am 18.0 17.5 12.7 71 3.0 NNW 7 9 4 5 1012.3 1012.3 0.0
23/01:30am 18.1 17.7 12.3 69 3.2 NNW 6 9 3 5 1012.3 1012.3 0.0
23/01:00am 18.5 18.0 12.0 66 3.6 NW 6 7 3 4 1011.8 1011.8 0.0
23/12:30am 19.1 18.0 11.9 63 4.0 NW 9 13 5 7 1011.5 1011.5 0.0
23/12:00am 20.1 18.8 11.3 57 4.8 WNW 9 11 5 6 1011.0 1011.0 0.0
 
Date/Time
EDT
Temp
°C
App
Temp
°C
Dew
Point
°C
Rel
Hum
%
Delta-T
°C
Wind Press
QNH
hPa
Press
MSL
hPa
Rain since
9am
mm
Dir  Spd
km/h
Gust
km/h
Spd
kts
Gust
kts
22/11:30pm 20.5 19.2 11.4 56 5.0 WNW 9 15 5 8 1011.0 1011.0 0.0
22/11:00pm 19.6 20.3 13.3 67 3.6 S 2 4 1 2 1010.5 1010.5 0.0
22/10:30pm 19.9 19.3 13.4 66 3.7 S 9 11 5 6 1010.2 1010.2 0.0
22/10:00pm 20.4 18.6 13.4 64 4.0 SSW 15 22 8 12 1010.0 1010.0 0.0
22/09:30pm 22.7 19.3 12.6 53 5.8 S 22 43 12 23 1008.5 1008.5 0.0
22/09:21pm 24.1 22.4 12.4 48 6.7 E 13 43 7 23 1008.3 1008.3 0.0
22/09:00pm 29.4 26.8 4.1 20 12.9 N 7 11 4 6 1006.9 1006.9 0.0
22/08:30pm 30.9 26.6 3.0 17 14.1 N 15 24 8 13 1006.6 1006.6 0.0
22/08:00pm 31.8 26.5 2.9 16 14.7 N 20 33 11 18 1006.5 1006.5 0.0
22/07:30pm 32.7 26.2 2.7 15 15.3 N 26 43 14 23 1006.2 1006.2 0.0
22/07:00pm 33.2 27.5 3.1 15 15.5 N 22 37 12 20 1006.3 1006.3 0.0
22/06:30pm 33.9 27.8 2.7 14 16.0 N 24 43 13 23 1006.5 1006.5 0.0
22/06:07pm 33.7 26.4 2.5 14 15.9 N 30 50 16 27 1006.7 1006.7 0.0
22/06:00pm 33.7 27.6 2.5 14 16.0 N 24 39 13 21 1006.7 1006.7 0.0
22/05:30pm 33.2 27.3 4.0 16 15.2 N 24 39 13 21 1007.2 1007.2 0.0
22/05:00pm 34.5 28.1 3.1 14 16.3 N 26 39 14 21 1007.6 1007.6 0.0
22/04:30pm 33.0 27.1 3.9 16 15.1 N 24 37 13 20 1008.0 1008.0 0.0
22/04:00pm 34.0 29.8 5.5 17 15.3 N 17 26 9 14 1008.5 1008.5 0.0
22/03:30pm 32.9 27.7 5.5 18 14.6 N 22 35 12 19 1009.0 1009.0 0.0
22/03:00pm 32.0 27.4 5.5 19 14.1 N 19 28 10 15 1009.3 1009.3 0.0
22/02:30pm 32.1 27.3 5.6 19 14.1 NNE 20 32 11 17 1009.4 1009.4 0.0
22/02:00pm 31.6 26.3 5.2 19 13.9 NNE 22 35 12 19 1010.1 1010.1 0.0
22/01:30pm 31.2 27.1 6.3 21 13.3 N 17 32 9 17 1011.2 1011.2 0.0
22/01:00pm 29.9 25.2 5.2 21 12.9 NNE 19 32 10 17 1011.7 1011.7 0.0
22/12:30pm 29.0 24.6 6.4 24 12.0 NNE 19 26 10 14 1012.4 1012.4 0.0
22/12:00pm 28.3 22.8 5.8 24 11.8 N 24 48 13 26 1012.7 1012.7 0.0
22/11:30am 27.4 22.5 6.8 27 10.9 NNE 22 33 12 18 1013.4 1013.4 0.0
22/11:00am 23.6 21.9 12.3 49 6.4 NE 13 19 7 10 1014.0 1014.0 0.0
22/10:30am 20.8 18.2 10.6 52 5.6 NE 15 20 8 11 1014.3 1014.3 0.0
22/10:00am 20.0 17.8 10.7 55 5.1 NE 13 17 7 9 1014.5 1014.5 0.0
22/09:30am 18.4 16.5 10.5 60 4.2 NE 11 17 6 9 1014.9 1014.9 0.0
22/09:00am 17.1 15.3 10.7 66 3.4 NE 11 15 6 8 1015.2 1015.2 0.0
22/08:30am 15.7 13.8 10.5 71 2.7 NE 11 17 6 9 1015.3 1015.3 0.0
22/08:00am 14.8 13.4 11.0 78 2.0 NE 9 15 5 8 1015.1 1015.1 0.0
22/07:30am 14.0 11.8 12.0 88 1.1 NNE 15 20 8 11 1014.8 1014.8 0.0
22/07:00am 14.1 12.6 13.0 93 0.6 NNE 13 19 7 10 1014.6 1014.6 0.0
22/06:30am 13.6 12.4 12.7 94 0.5 NNE 11 17 6 9 1014.7 1014.7 0.0
22/06:00am 12.7 12.2 11.9 95 0.4 NE 6 7 3 4 1014.6 1014.6 0.0
22/05:30am 12.0 11.6 11.1 94 0.5 NNE 4 7 2 4 1014.7 1014.7 0.0
22/05:00am 13.1 12.7 12.3 95 0.4 NNE 6 9 3 5 1014.8 1014.8 0.0
22/04:30am 10.9 10.6 10.0 94 0.5 NE 2 6 1 3 1015.2 1015.2 0.0
22/04:00am 11.3 11.5 10.4 94 0.5 CALM 0 0 0 0 1015.4 1015.4 0.0
22/03:30am 11.7 12.0 10.8 94 0.5 CALM 0 0 0 0 1015.6 1015.6 0.0
22/03:00am 11.9 12.2 11.0 94 0.5 CALM 0 0 0 0 1015.9 1015.9 0.0
22/02:30am 12.2 12.6 11.3 94 0.5 CALM 0 0 0 0 1016.2 1016.2 0.0
22/02:00am 12.1 12.5 11.2 94 0.5 CALM 0 0 0 0 1016.7 1016.7 0.0
22/01:30am 12.4 12.5 11.5 94 0.5 SSE 2 2 1 1 1017.2 1017.2 0.0
22/01:00am 12.7 12.5 11.8 94 0.5 SSE 4 4 2 2 1017.7 1017.7 0.0
22/12:30am 12.8 13.3 11.7 93 0.6 CALM 0 0 0 0 1018.1 1018.1 0.0
22/12:00am 13.4 14.1 12.3 93 0.6 CALM 0 0 0 0 1018.4 1018.4 0.0
 
Date/Time
EDT
Temp
°C
App
Temp
°C
Dew
Point
°C
Rel
Hum
%
Delta-T
°C
Wind Press
QNH
hPa
Press
MSL
hPa
Rain since
9am
mm
Dir  Spd
km/h
Gust
km/h
Spd
kts
Gust
kts
21/11:30pm 13.1 13.7 12.0 93 0.6 CALM 0 0 0 0 1018.6 1018.6 0.0
21/11:00pm 13.7 14.5 12.6 93 0.6 CALM 0 0 0 0 1018.8 1018.8 0.0
21/10:30pm 13.9 14.7 12.6 92 0.7 CALM 0 2 0 1 1019.0 1019.0 0.0
21/10:00pm 14.8 15.1 13.5 92 0.7 SSE 4 4 2 2 1018.9 1018.9 0.0
21/09:30pm 15.6 16.0 13.6 88 1.1 SSE 4 6 2 3 1018.7 1018.7 0.0
21/09:00pm 15.8 15.5 13.3 85 1.4 S 7 13 4 7 1018.4 1018.4 0.0
21/08:30pm 16.4 15.4 12.4 77 2.2 S 9 13 5 7 1018.3 1018.3 0.0
21/08:00pm 17.4 16.0 12.1 71 2.9 SSE 11 15 6 8 1018.0 1018.0 0.0
21/07:30pm 18.2 15.6 12.0 67 3.4 SSE 17 22 9 12 1018.0 1018.0 0.0
21/07:00pm 19.1 16.8 11.9 63 4.0 SE 15 22 8 12 1017.8 1017.8 0.0
21/06:30pm 19.8 16.3 11.0 57 4.8 SSE 20 28 11 15 1017.9 1017.9 0.0
21/06:00pm 20.4 17.2 11.1 55 5.1 SSE 19 32 10 17 1017.8 1017.8 0.0
21/05:30pm 21.3 17.7 10.5 50 5.9 SSE 20 26 11 14 1017.9 1017.9 0.0
21/05:00pm 22.1 19.4 8.9 43 7.0 ESE 13 28 7 15 1018.1 1018.1 0.0
21/04:30pm 21.8 19.2 10.6 49 6.1 SE 15 26 8 14 1018.4 1018.4 0.0
21/04:00pm 22.5 19.9 10.6 47 6.5 SE 15 24 8 13 1018.8 1018.8 0.0
21/03:30pm 22.0 19.7 10.5 48 6.3 SE 13 28 7 15 1019.0 1019.0 0.0
21/03:00pm 22.6 21.1 9.0 42 7.3 NNE 7 19 4 10 1019.5 1019.5 0.0
21/02:30pm 21.6 19.5 8.1 42 7.1 ENE 9 17 5 9 1020.0 1020.0 0.0
21/02:00pm 21.8 19.3 8.3 42 7.1 ENE 11 20 6 11 1020.1 1020.1 0.0
21/01:30pm 20.8 18.6 7.8 43 6.7 NE 9 15 5 8 1020.5 1020.5 0.0
21/01:00pm 20.6 17.6 7.9 44 6.6 NE 13 17 7 9 1020.6 1020.6 0.0
21/12:30pm 20.5 17.6 8.2 45 6.4 NE 13 19 7 10 1021.0 1021.0 0.0
21/12:00pm 20.1 18.3 8.1 46 6.2 N 7 11 4 6 1021.4 1021.4 0.0
21/11:30am 19.7 18.3 9.0 50 5.6 ESE 6 11 3 6 1021.5 1021.5 0.0
21/11:00am 19.3 17.9 8.9 51 5.4 ESE 6 9 3 5 1021.4 1021.4 0.0
21/10:30am 18.1 17.3 11.0 63 3.8 NNW 6 9 3 5 1021.6 1021.6 0.0
21/10:00am 16.2 15.2 10.9 71 2.8 NW 7 13 4 7 1021.7 1021.7 0.0

Latest Capital City Observations: Canberra | Sydney | Melbourne | Brisbane | Adelaide | Perth | Hobart | Darwin

Other Formats:

Comma delimited format used in spreadsheet applications
http://www.bom.gov.au/fwo/IDV60901/IDV60901.94857.axf

JavaScript Object Notation format (JSON) in row-major order
http://www.bom.gov.au/fwo/IDV60901/IDV60901.94857.json